createdAt,value
2023-02-04T00:01:12.000Z,6
2023-02-04T00:02:42.000Z,6
2023-02-04T00:04:13.000Z,5.9
2023-02-04T00:05:43.000Z,5.8
2023-02-04T00:07:14.000Z,5.8
2023-02-04T00:08:44.000Z,5.8
2023-02-04T00:10:15.000Z,5.7
2023-02-04T00:11:45.000Z,5.7
2023-02-04T00:13:16.000Z,5.7
2023-02-04T00:14:46.000Z,5.7
2023-02-04T00:16:03.000Z,5.6
2023-02-04T00:17:20.000Z,5.7
2023-02-04T00:18:51.000Z,5.8
2023-02-04T00:20:21.000Z,5.8
2023-02-04T00:21:52.000Z,5.7
2023-02-04T00:23:22.000Z,5.6
2023-02-04T00:24:53.000Z,5.6
2023-02-04T00:26:23.000Z,5.5
2023-02-04T00:27:54.000Z,5.5
2023-02-04T00:29:24.000Z,5.6
2023-02-04T00:30:55.000Z,5.6
2023-02-04T00:32:12.000Z,5.7
2023-02-04T00:33:29.000Z,5.7
2023-02-04T00:34:59.000Z,5.7
2023-02-04T00:36:30.000Z,5.7
2023-02-04T00:38:00.000Z,5.6
2023-02-04T00:39:31.000Z,5.5
2023-02-04T00:41:01.000Z,5.4
2023-02-04T00:42:32.000Z,5.4
2023-02-04T00:44:02.000Z,5.3
2023-02-04T00:45:33.000Z,5.3
2023-02-04T00:47:03.000Z,5.3
2023-02-04T00:48:20.000Z,5.2
2023-02-04T00:49:37.000Z,5.2
2023-02-04T00:51:08.000Z,5.2
2023-02-04T00:52:38.000Z,5.2
2023-02-04T00:54:09.000Z,5.2
2023-02-04T00:55:39.000Z,5.2
2023-02-04T00:57:10.000Z,5.2
2023-02-04T00:58:40.000Z,5.2
2023-02-04T01:00:11.000Z,5.2
2023-02-04T01:01:41.000Z,5.2
2023-02-04T01:03:12.000Z,5.3
2023-02-04T01:04:29.000Z,5.3
2023-02-04T01:05:46.000Z,5.4
2023-02-04T01:07:16.000Z,5.3
2023-02-04T01:08:47.000Z,5.4
2023-02-04T01:10:17.000Z,5.4
2023-02-04T01:11:48.000Z,5.4
2023-02-04T01:13:18.000Z,5.4
2023-02-04T01:14:49.000Z,5.4
2023-02-04T01:16:19.000Z,5.4
2023-02-04T01:17:50.000Z,5.4
2023-02-04T01:19:20.000Z,5.5
2023-02-04T01:20:37.000Z,5.5
2023-02-04T01:21:54.000Z,5.5
2023-02-04T01:23:25.000Z,5.5
2023-02-04T01:24:55.000Z,5.5
2023-02-04T01:26:26.000Z,5.5
2023-02-04T01:27:56.000Z,5.5
2023-02-04T01:29:27.000Z,5.5
2023-02-04T01:30:57.000Z,5.6
2023-02-04T01:32:28.000Z,5.6
2023-02-04T01:33:58.000Z,5.7
2023-02-04T01:35:29.000Z,5.7
2023-02-04T01:36:46.000Z,5.7
2023-02-04T01:38:03.000Z,5.8
2023-02-04T01:39:33.000Z,5.8
2023-02-04T01:42:34.000Z,5.9
2023-02-04T01:44:05.000Z,5.9
2023-02-04T01:45:35.000Z,6
2023-02-04T01:47:06.000Z,6
2023-02-04T01:48:36.000Z,6
2023-02-04T01:50:07.000Z,6.1
2023-02-04T01:51:37.000Z,6.1
2023-02-04T01:52:54.000Z,6
2023-02-04T01:54:11.000Z,6
2023-02-04T01:55:42.000Z,6
2023-02-04T01:57:12.000Z,6
2023-02-04T01:58:43.000Z,6
2023-02-04T02:00:13.000Z,6
2023-02-04T02:01:44.000Z,6
2023-02-04T02:03:14.000Z,6
2023-02-04T02:04:45.000Z,6
2023-02-04T02:06:16.000Z,6
2023-02-04T02:07:46.000Z,6.1
2023-02-04T02:09:03.000Z,6.1
2023-02-04T02:10:20.000Z,6.1
2023-02-04T02:11:50.000Z,6.2
2023-02-04T02:13:21.000Z,6.2
2023-02-04T02:14:51.000Z,6.2
2023-02-04T02:16:22.000Z,6.2
2023-02-04T02:17:53.000Z,6.2
2023-02-04T02:19:23.000Z,6.2
2023-02-04T02:20:54.000Z,6.2
2023-02-04T02:22:24.000Z,6.2
2023-02-04T02:23:55.000Z,6.2
2023-02-04T02:25:12.000Z,6.2
2023-02-04T02:26:29.000Z,6.2
2023-02-04T02:27:59.000Z,6.2
2023-02-04T02:29:30.000Z,6.2
2023-02-04T02:31:00.000Z,6.1
2023-02-04T02:32:31.000Z,6.1
2023-02-04T02:34:01.000Z,6.2
2023-02-04T02:35:32.000Z,6.2
2023-02-04T02:37:02.000Z,6.2
2023-02-04T02:38:33.000Z,6.2
2023-02-04T02:40:03.000Z,6.2
2023-02-04T02:41:20.000Z,6.2
2023-02-04T02:42:37.000Z,6.2
2023-02-04T02:44:08.000Z,6.2
2023-02-04T02:45:38.000Z,6.2
2023-02-04T02:47:09.000Z,6.2
2023-02-04T02:48:39.000Z,6.2
2023-02-04T02:50:10.000Z,6.2
2023-02-04T02:51:40.000Z,6.2
2023-02-04T02:53:11.000Z,6.2
2023-02-04T02:54:41.000Z,6.2
2023-02-04T02:56:12.000Z,6.2
2023-02-04T02:57:29.000Z,6.2
2023-02-04T02:58:46.000Z,6.2
2023-02-04T03:00:16.000Z,6.2
2023-02-04T03:01:47.000Z,6.2
2023-02-04T03:03:17.000Z,6.2
2023-02-04T03:04:48.000Z,6.2
2023-02-04T03:06:18.000Z,6.2
2023-02-04T03:07:57.000Z,6.1
2023-02-04T03:09:27.000Z,6.1
2023-02-04T03:10:58.000Z,6.1
2023-02-04T03:12:28.000Z,6.1
2023-02-04T03:13:45.000Z,6.1
2023-02-04T03:15:02.000Z,6
2023-02-04T03:16:33.000Z,6
2023-02-04T03:18:03.000Z,6
2023-02-04T03:21:04.000Z,6
2023-02-04T03:22:35.000Z,6
2023-02-04T03:24:05.000Z,6
2023-02-04T03:25:36.000Z,5.9
2023-02-04T03:27:06.000Z,5.9
2023-02-04T03:28:37.000Z,5.9
2023-02-04T03:29:54.000Z,5.9
2023-02-04T03:31:11.000Z,6
2023-02-04T03:32:41.000Z,6
2023-02-04T03:34:12.000Z,6
2023-02-04T03:37:13.000Z,6.1
2023-02-04T03:38:43.000Z,6
2023-02-04T03:40:14.000Z,6
2023-02-04T03:41:44.000Z,6
2023-02-04T03:43:15.000Z,6
2023-02-04T03:44:45.000Z,6
2023-02-04T03:46:02.000Z,6
2023-02-04T03:47:19.000Z,6
2023-02-04T03:48:50.000Z,6
2023-02-04T03:50:20.000Z,5.9
2023-02-04T03:51:51.000Z,5.9
2023-02-04T03:53:21.000Z,5.9
2023-02-04T03:54:52.000Z,5.9
2023-02-04T03:56:23.000Z,5.9
2023-02-04T03:57:53.000Z,5.9
2023-02-04T03:59:24.000Z,5.9
2023-02-04T04:00:54.000Z,5.9
2023-02-04T04:02:11.000Z,5.9
2023-02-04T04:03:28.000Z,6
2023-02-04T04:04:58.000Z,5.9
2023-02-04T04:06:29.000Z,5.9
2023-02-04T04:08:00.000Z,5.9
2023-02-04T04:09:30.000Z,5.8
2023-02-04T04:11:01.000Z,5.8
2023-02-04T04:12:31.000Z,5.8
2023-02-04T04:14:02.000Z,5.8
2023-02-04T04:15:32.000Z,5.7
2023-02-04T04:18:20.000Z,5.7
2023-02-04T04:19:37.000Z,5.7
2023-02-04T04:21:07.000Z,5.6
2023-02-04T04:22:38.000Z,5.6
2023-02-04T04:24:08.000Z,5.5
2023-02-04T04:25:39.000Z,5.5
2023-02-04T04:27:09.000Z,5.5
2023-02-04T04:28:40.000Z,5.4
2023-02-04T04:30:10.000Z,5.4
2023-02-04T04:31:41.000Z,5.4
2023-02-04T04:33:11.000Z,5.5
2023-02-04T04:34:28.000Z,5.5
2023-02-04T04:35:45.000Z,5.5
2023-02-04T04:37:16.000Z,5.5
2023-02-04T04:38:46.000Z,5.5
2023-02-04T04:40:17.000Z,5.4
2023-02-04T04:41:47.000Z,5.4
2023-02-04T04:43:18.000Z,5.5
2023-02-04T04:44:48.000Z,5.6
2023-02-04T04:46:19.000Z,5.6
2023-02-04T04:47:49.000Z,5.6
2023-02-04T04:49:20.000Z,5.6
2023-02-04T04:50:37.000Z,5.6
2023-02-04T04:51:54.000Z,5.6
2023-02-04T04:53:24.000Z,5.7
2023-02-04T04:54:55.000Z,5.7
2023-02-04T04:56:25.000Z,5.7
2023-02-04T04:57:56.000Z,5.8
2023-02-04T04:59:26.000Z,5.8
2023-02-04T05:00:57.000Z,5.8
2023-02-04T05:02:27.000Z,5.8
2023-02-04T05:03:58.000Z,5.8
2023-02-04T05:05:28.000Z,5.9
2023-02-04T05:06:45.000Z,5.9
2023-02-04T05:08:02.000Z,5.9
2023-02-04T05:09:33.000Z,6
2023-02-04T05:11:03.000Z,5.9
2023-02-04T05:12:34.000Z,5.9
2023-02-04T05:14:04.000Z,5.9
2023-02-04T05:15:35.000Z,5.9
2023-02-04T05:17:05.000Z,5.9
2023-02-04T05:18:36.000Z,5.9
2023-02-04T05:21:37.000Z,5.9
2023-02-04T05:22:54.000Z,5.8
2023-02-04T05:24:11.000Z,5.8
2023-02-04T05:25:41.000Z,5.8
2023-02-04T05:27:12.000Z,5.8
2023-02-04T05:28:42.000Z,5.8
2023-02-04T05:30:13.000Z,5.8
2023-02-04T05:31:43.000Z,5.8
2023-02-04T05:33:14.000Z,5.8
2023-02-04T05:34:44.000Z,5.8
2023-02-04T05:36:15.000Z,5.8
2023-02-04T05:37:45.000Z,5.8
2023-02-04T05:39:02.000Z,5.8
2023-02-04T05:40:19.000Z,5.8
2023-02-04T05:41:50.000Z,5.8
2023-02-04T05:43:20.000Z,5.7
2023-02-04T05:44:51.000Z,5.7
2023-02-04T05:46:21.000Z,5.7
2023-02-04T05:47:52.000Z,5.7
2023-02-04T05:49:22.000Z,5.6
2023-02-04T05:50:53.000Z,5.6
2023-02-04T05:52:23.000Z,5.6
2023-02-04T05:53:54.000Z,5.5
2023-02-04T05:55:11.000Z,5.5
2023-02-04T05:56:28.000Z,5.5
2023-02-04T05:57:58.000Z,5.5
2023-02-04T05:59:29.000Z,5.5
2023-02-04T06:00:59.000Z,5.5
2023-02-04T06:02:30.000Z,5.4
2023-02-04T06:04:00.000Z,5.5
2023-02-04T06:05:31.000Z,5.5
2023-02-04T06:07:01.000Z,5.5
2023-02-04T06:08:32.000Z,5.5
2023-02-04T06:10:02.000Z,5.5
2023-02-04T06:11:19.000Z,5.5
2023-02-04T06:12:36.000Z,5.5
2023-02-04T06:14:06.000Z,5.5
2023-02-04T06:15:37.000Z,5.5
2023-02-04T06:17:07.000Z,5.5
2023-02-04T06:18:38.000Z,5.4
2023-02-04T06:20:09.000Z,5.4
2023-02-04T06:21:39.000Z,5.5
2023-02-04T06:23:10.000Z,5.4
2023-02-04T06:24:40.000Z,5.4
2023-02-04T06:26:11.000Z,5.4
2023-02-04T06:27:28.000Z,5.4
2023-02-04T06:28:45.000Z,5.4
2023-02-04T06:30:15.000Z,5.4
2023-02-04T06:31:46.000Z,5.3
2023-02-04T06:33:16.000Z,5.3
2023-02-04T06:34:47.000Z,5.3
2023-02-04T06:36:17.000Z,5.3
2023-02-04T06:37:48.000Z,5.3
2023-02-04T06:39:18.000Z,5.3
2023-02-04T06:40:49.000Z,5.3
2023-02-04T06:42:19.000Z,5.3
2023-02-04T06:43:36.000Z,5.2
2023-02-04T06:44:53.000Z,5.2
2023-02-04T06:46:24.000Z,5.3
2023-02-04T06:47:54.000Z,5.2
2023-02-04T06:49:25.000Z,5.2
2023-02-04T06:50:55.000Z,5.2
2023-02-04T06:52:26.000Z,5.2
2023-02-04T06:53:56.000Z,5.2
2023-02-04T06:55:27.000Z,5.2
2023-02-04T06:56:57.000Z,5.2
2023-02-04T06:58:28.000Z,5.2
2023-02-04T06:59:45.000Z,5.2
2023-02-04T07:01:02.000Z,5.2
2023-02-04T07:02:32.000Z,5.2
2023-02-04T07:04:03.000Z,5.2
2023-02-04T07:05:33.000Z,5.2
2023-02-04T07:07:04.000Z,5.2
2023-02-04T07:08:34.000Z,5.3
2023-02-04T07:10:05.000Z,5.3
2023-02-04T07:11:35.000Z,5.3
2023-02-04T07:13:06.000Z,5.3
2023-02-04T07:14:36.000Z,5.3
2023-02-04T07:15:53.000Z,5.3
2023-02-04T07:17:10.000Z,5.2
2023-02-04T07:18:41.000Z,5.2
2023-02-04T07:20:11.000Z,5.2
2023-02-04T07:21:42.000Z,5.2
2023-02-04T07:23:12.000Z,5.2
2023-02-04T07:24:43.000Z,5.3
2023-02-04T07:26:13.000Z,5.3
2023-02-04T07:27:44.000Z,5.3
2023-02-04T07:29:14.000Z,5.3
2023-02-04T07:30:45.000Z,5.3
2023-02-04T07:32:02.000Z,5.3
2023-02-04T07:33:19.000Z,5.4
2023-02-04T07:34:49.000Z,5.4
2023-02-04T07:36:20.000Z,5.4
2023-02-04T07:37:50.000Z,5.5
2023-02-04T07:39:21.000Z,5.5
2023-02-04T07:40:51.000Z,5.5
2023-02-04T07:42:22.000Z,5.5
2023-02-04T07:43:52.000Z,5.4
2023-02-04T07:45:23.000Z,5.5
2023-02-04T07:46:53.000Z,5.5
2023-02-04T07:48:10.000Z,5.6
2023-02-04T07:49:27.000Z,5.6
2023-02-04T07:50:58.000Z,5.7
2023-02-04T07:52:28.000Z,5.7
2023-02-04T07:53:59.000Z,5.8
2023-02-04T07:55:29.000Z,5.8
2023-02-04T07:57:00.000Z,5.8
2023-02-04T07:58:30.000Z,5.8
2023-02-04T08:00:01.000Z,5.8
2023-02-04T08:01:31.000Z,5.8
2023-02-04T08:03:10.000Z,5.8
2023-02-04T08:04:27.000Z,5.9
2023-02-04T08:05:44.000Z,5.9
2023-02-04T08:07:14.000Z,5.8
2023-02-04T08:08:45.000Z,5.9
2023-02-04T08:10:16.000Z,5.9
2023-02-04T08:11:46.000Z,5.8
2023-02-04T08:13:17.000Z,5.9
2023-02-04T08:14:47.000Z,5.9
2023-02-04T08:16:18.000Z,5.9
2023-02-04T08:17:48.000Z,5.9
2023-02-04T08:19:19.000Z,6
2023-02-04T08:20:35.000Z,6
2023-02-04T08:21:52.000Z,5.9
2023-02-04T08:23:23.000Z,5.9
2023-02-04T08:24:53.000Z,6
2023-02-04T08:26:24.000Z,6
2023-02-04T08:27:54.000Z,6.1
2023-02-04T08:29:25.000Z,6.2
2023-02-04T08:30:55.000Z,6.2
2023-02-04T08:32:26.000Z,6.3
2023-02-04T08:33:56.000Z,6.3
2023-02-04T08:35:27.000Z,6.2
2023-02-04T08:36:44.000Z,6.2
2023-02-04T08:38:01.000Z,6.2
2023-02-04T08:39:31.000Z,6.2
2023-02-04T08:41:02.000Z,6.2
2023-02-04T08:42:32.000Z,6.2
2023-02-04T08:44:03.000Z,6.2
2023-02-04T08:45:33.000Z,6.2
2023-02-04T08:47:04.000Z,6.2
2023-02-04T08:48:34.000Z,6.1
2023-02-04T08:50:05.000Z,6.1
2023-02-04T08:51:35.000Z,6.1
2023-02-04T08:52:52.000Z,6.1
2023-02-04T08:54:09.000Z,6.2
2023-02-04T08:55:40.000Z,6.2
2023-02-04T08:57:10.000Z,6.2
2023-02-04T08:58:41.000Z,6.1
2023-02-04T09:00:11.000Z,6.2
2023-02-04T09:01:42.000Z,6.2
2023-02-04T09:03:12.000Z,6.2
2023-02-04T09:04:43.000Z,6.2
2023-02-04T09:06:13.000Z,6.2
2023-02-04T09:07:44.000Z,6.2
2023-02-04T09:09:01.000Z,6.2
2023-02-04T09:10:18.000Z,6.2
2023-02-04T09:11:48.000Z,6.2
2023-02-04T09:13:19.000Z,6.2
2023-02-04T09:14:49.000Z,6.3
2023-02-04T09:16:20.000Z,6.4
2023-02-04T09:17:50.000Z,6.6
2023-02-04T09:19:21.000Z,6.7
2023-02-04T09:20:51.000Z,6.8
2023-02-04T09:22:22.000Z,7
2023-02-04T09:23:52.000Z,7.2
2023-02-04T09:25:09.000Z,7.3
2023-02-04T09:26:26.000Z,7.4
2023-02-04T09:27:57.000Z,7.2
2023-02-04T09:29:27.000Z,7.4
2023-02-04T09:30:58.000Z,7.4
2023-02-04T09:32:28.000Z,7.6
2023-02-04T09:33:59.000Z,7.8
2023-02-04T09:35:29.000Z,8.1
2023-02-04T09:37:00.000Z,8
2023-02-04T09:38:30.000Z,7.8
2023-02-04T09:40:01.000Z,7.7
2023-02-04T09:41:18.000Z,7.6
2023-02-04T09:42:35.000Z,7.5
2023-02-04T09:44:05.000Z,7.4
2023-02-04T09:45:36.000Z,7.3
2023-02-04T09:47:06.000Z,7.3
2023-02-04T09:48:37.000Z,7.4
2023-02-04T09:50:07.000Z,7.7
2023-02-04T09:51:38.000Z,8.4
2023-02-04T09:53:08.000Z,9.1
2023-02-04T09:54:39.000Z,9.6
2023-02-04T09:56:09.000Z,9.6
2023-02-04T09:57:26.000Z,9.3
2023-02-04T09:58:43.000Z,9.4
2023-02-04T10:00:13.000Z,9.7
2023-02-04T10:01:44.000Z,10.1
2023-02-04T10:03:14.000Z,10.3
2023-02-04T10:04:45.000Z,10.4
2023-02-04T10:06:15.000Z,9.7
2023-02-04T10:07:46.000Z,9.6
2023-02-04T10:09:17.000Z,9.7
2023-02-04T10:10:47.000Z,9.8
2023-02-04T10:12:18.000Z,10.3
2023-02-04T10:13:34.000Z,10.5
2023-02-04T10:14:51.000Z,10.5
2023-02-04T10:16:22.000Z,10.7
2023-02-04T10:17:53.000Z,10.3
2023-02-04T10:19:23.000Z,10.1
2023-02-04T10:20:54.000Z,10.3
2023-02-04T10:22:24.000Z,10.7
2023-02-04T10:23:55.000Z,10.5
2023-02-04T10:25:25.000Z,10.4
2023-02-04T10:26:56.000Z,9.8
2023-02-04T10:28:26.000Z,9.2
2023-02-04T10:29:43.000Z,9
2023-02-04T10:31:00.000Z,9.1
2023-02-04T10:32:31.000Z,9
2023-02-04T10:34:01.000Z,8.8
2023-02-04T10:35:32.000Z,8.9
2023-02-04T10:37:02.000Z,9
2023-02-04T10:38:33.000Z,9
2023-02-04T10:40:03.000Z,9.2
2023-02-04T10:41:34.000Z,9.6
2023-02-04T10:43:04.000Z,10
2023-02-04T10:44:35.000Z,10.5
2023-02-04T10:45:52.000Z,10.7
2023-02-04T10:47:09.000Z,10.6
2023-02-04T10:48:39.000Z,11.1
2023-02-04T10:50:10.000Z,11.3
2023-02-04T10:51:40.000Z,11.6
2023-02-04T10:53:11.000Z,11.5
2023-02-04T10:54:41.000Z,10.4
2023-02-04T10:56:12.000Z,10.4
2023-02-04T10:57:42.000Z,10
2023-02-04T10:59:13.000Z,9.3
2023-02-04T11:00:43.000Z,8.9
2023-02-04T11:02:00.000Z,8.8
2023-02-04T11:03:17.000Z,8.8
2023-02-04T11:04:48.000Z,8.7
2023-02-04T11:06:18.000Z,8.7
2023-02-04T11:07:49.000Z,8.5
2023-02-04T11:09:19.000Z,8.6
2023-02-04T11:10:50.000Z,8.8
2023-02-04T11:12:20.000Z,9
2023-02-04T11:13:51.000Z,9
2023-02-04T11:15:21.000Z,9
2023-02-04T11:16:52.000Z,9.1
2023-02-04T11:18:09.000Z,9.2
2023-02-04T11:19:25.000Z,9.3
2023-02-04T11:20:56.000Z,9.4
2023-02-04T11:22:26.000Z,9.4
2023-02-04T11:23:57.000Z,9.6
2023-02-04T11:25:27.000Z,9.4
2023-02-04T11:26:58.000Z,9
2023-02-04T11:28:28.000Z,9.1
2023-02-04T11:29:59.000Z,9.2
2023-02-04T11:31:29.000Z,9.4
2023-02-04T11:33:00.000Z,9.6
2023-02-04T11:34:17.000Z,9.7
2023-02-04T11:35:34.000Z,9.6
2023-02-04T11:37:04.000Z,9.2
2023-02-04T11:38:35.000Z,8.5
2023-02-04T11:40:05.000Z,8.4
2023-02-04T11:41:36.000Z,8.6
2023-02-04T11:43:06.000Z,8.8
2023-02-04T11:44:37.000Z,8.8
2023-02-04T11:46:07.000Z,8.8
2023-02-04T11:47:38.000Z,8.9
2023-02-04T11:49:08.000Z,8.8
2023-02-04T11:50:25.000Z,8.7
2023-02-04T11:51:42.000Z,8.7
2023-02-04T11:53:13.000Z,8.8
2023-02-04T11:54:43.000Z,8.8
2023-02-04T11:56:14.000Z,8.7
2023-02-04T11:57:44.000Z,8.5
2023-02-04T11:59:15.000Z,8.5
2023-02-04T12:00:45.000Z,8.8
2023-02-04T12:02:16.000Z,8.8
2023-02-04T12:03:46.000Z,9
2023-02-04T12:05:17.000Z,9.3
2023-02-04T12:06:34.000Z,9.5
2023-02-04T12:07:51.000Z,9.7
2023-02-04T12:09:21.000Z,9.9
2023-02-04T12:10:52.000Z,9.9
2023-02-04T12:12:22.000Z,9.7
2023-02-04T12:13:53.000Z,9.6
2023-02-04T12:15:23.000Z,9.2
2023-02-04T12:16:54.000Z,8.9
2023-02-04T12:18:24.000Z,9.1
2023-02-04T12:19:55.000Z,8.9
2023-02-04T12:21:25.000Z,8.8
2023-02-04T12:22:42.000Z,8.8
2023-02-04T12:23:59.000Z,9
2023-02-04T12:25:30.000Z,9.2
2023-02-04T12:27:00.000Z,9.6
2023-02-04T12:28:31.000Z,10.1
2023-02-04T12:30:01.000Z,10.5
2023-02-04T12:31:32.000Z,10.5
2023-02-04T12:33:03.000Z,10.3
2023-02-04T12:34:33.000Z,9.7
2023-02-04T12:36:04.000Z,9.5
2023-02-04T12:37:34.000Z,9.6
2023-02-04T12:38:51.000Z,9.8
2023-02-04T12:40:08.000Z,9.9
2023-02-04T12:41:38.000Z,10.1
2023-02-04T12:43:09.000Z,10.4
2023-02-04T12:44:39.000Z,10.7
2023-02-04T12:46:10.000Z,10.8
2023-02-04T12:47:40.000Z,10.7
2023-02-04T12:49:11.000Z,10.9
2023-02-04T12:50:41.000Z,10.6
2023-02-04T12:52:12.000Z,10.6
2023-02-04T12:53:42.000Z,10.5
2023-02-04T12:54:59.000Z,10.2
2023-02-04T12:56:16.000Z,10
2023-02-04T12:57:54.000Z,10
2023-02-04T12:59:25.000Z,9.7
2023-02-04T13:00:55.000Z,9.7
2023-02-04T13:02:26.000Z,9.7
2023-02-04T13:03:56.000Z,9.6
2023-02-04T13:05:27.000Z,9.3
2023-02-04T13:06:57.000Z,9.3
2023-02-04T13:08:28.000Z,9.4
2023-02-04T13:09:58.000Z,9.6
2023-02-04T13:11:15.000Z,9.9
2023-02-04T13:12:32.000Z,10.1
2023-02-04T13:14:03.000Z,10.3
2023-02-04T13:15:33.000Z,10.5
2023-02-04T13:17:04.000Z,10.2
2023-02-04T13:18:34.000Z,10
2023-02-04T13:20:05.000Z,9.8
2023-02-04T13:21:35.000Z,9.5
2023-02-04T13:23:06.000Z,9.4
2023-02-04T13:24:36.000Z,9.4
2023-02-04T13:26:07.000Z,9.1
2023-02-04T13:27:24.000Z,9.1
2023-02-04T13:28:41.000Z,9.2
2023-02-04T13:30:11.000Z,9.3
2023-02-04T13:31:42.000Z,9.4
2023-02-04T13:33:12.000Z,9.2
2023-02-04T13:34:43.000Z,9.1
2023-02-04T13:36:14.000Z,9.1
2023-02-04T13:37:44.000Z,9
2023-02-04T13:39:15.000Z,8.9
2023-02-04T13:40:45.000Z,9
2023-02-04T13:42:16.000Z,9.1
2023-02-04T13:43:33.000Z,9.2
2023-02-04T13:44:49.000Z,9.2
2023-02-04T13:46:20.000Z,9.2
2023-02-04T13:47:51.000Z,9.1
2023-02-04T13:49:21.000Z,9.1
2023-02-04T13:50:52.000Z,9.1
2023-02-04T13:52:22.000Z,8.9
2023-02-04T13:53:53.000Z,8.8
2023-02-04T13:55:23.579Z,8.8
2023-02-04T13:56:54.000Z,8.8
2023-02-04T13:58:24.000Z,8.8
2023-02-04T13:59:41.000Z,8.7
2023-02-04T14:00:58.000Z,8.7
2023-02-04T14:02:29.000Z,8.8
2023-02-04T14:03:59.000Z,8.8
2023-02-04T14:05:30.000Z,8.8
2023-02-04T14:07:00.000Z,8.7
2023-02-04T14:08:31.000Z,8.6
2023-02-04T14:10:01.000Z,8.6
2023-02-04T14:11:32.000Z,8.5
2023-02-04T14:14:33.000Z,8.5
2023-02-04T14:15:49.000Z,8.4
2023-02-04T14:18:37.000Z,8.4
2023-02-04T14:20:07.000Z,8.4
2023-02-04T14:21:38.000Z,8.4
2023-02-04T14:23:08.000Z,8.4
2023-02-04T14:24:39.000Z,8.4
2023-02-04T14:26:09.000Z,8.5
2023-02-04T14:27:40.000Z,8.4
2023-02-04T14:29:10.000Z,8.4
2023-02-04T14:30:41.000Z,8.3
2023-02-04T14:31:58.000Z,8.3
2023-02-04T14:33:15.000Z,8.3
2023-02-04T14:34:45.000Z,8.3
2023-02-04T14:36:16.000Z,8.2
2023-02-04T14:37:46.000Z,8.3
2023-02-04T14:39:17.000Z,8.3
2023-02-04T14:40:47.000Z,8.3
2023-02-04T14:42:18.000Z,8.3
2023-02-04T14:43:48.000Z,8.3
2023-02-04T14:45:19.000Z,8.3
2023-02-04T14:46:49.000Z,8.3
2023-02-04T14:48:06.000Z,8.3
2023-02-04T14:49:23.000Z,8.3
2023-02-04T14:50:54.000Z,8.3
2023-02-04T14:52:24.000Z,8.3
2023-02-04T14:53:55.000Z,8.3
2023-02-04T14:55:25.000Z,8.3
2023-02-04T14:56:56.000Z,8.3
2023-02-04T14:58:26.000Z,8.4
2023-02-04T14:59:57.000Z,8.3
2023-02-04T15:01:27.000Z,8.3
2023-02-04T15:02:58.000Z,8.2
2023-02-04T15:04:15.000Z,8.2
2023-02-04T15:05:32.000Z,8.2
2023-02-04T15:07:02.000Z,8.1
2023-02-04T15:08:33.000Z,8.1
2023-02-04T15:10:03.000Z,8
2023-02-04T15:11:34.000Z,8
2023-02-04T15:13:04.000Z,7.9
2023-02-04T15:14:35.000Z,7.9
2023-02-04T15:16:05.000Z,7.9
2023-02-04T15:17:36.000Z,7.8
2023-02-04T15:19:06.000Z,7.8
2023-02-04T15:20:23.000Z,7.7
2023-02-04T15:21:40.000Z,7.6
2023-02-04T15:23:11.000Z,7.6
2023-02-04T15:24:41.000Z,7.6
2023-02-04T15:26:12.000Z,7.5
2023-02-04T15:27:42.000Z,7.6
2023-02-04T15:29:13.000Z,7.6
2023-02-04T15:30:43.000Z,7.6
2023-02-04T15:32:14.000Z,7.6
2023-02-04T15:33:44.000Z,7.6
2023-02-04T15:35:15.000Z,7.7
2023-02-04T15:36:32.000Z,7.6
2023-02-04T15:37:49.000Z,7.6
2023-02-04T15:39:19.000Z,7.6
2023-02-04T15:40:50.000Z,7.7
2023-02-04T15:42:20.000Z,7.8
2023-02-04T15:43:51.000Z,7.8
2023-02-04T15:45:21.000Z,7.8
2023-02-04T15:46:52.000Z,7.9
2023-02-04T15:48:23.000Z,7.9
2023-02-04T15:49:53.000Z,7.9
2023-02-04T15:51:24.000Z,7.9
2023-02-04T15:52:40.000Z,7.9
2023-02-04T15:53:57.000Z,7.8
2023-02-04T15:55:28.000Z,7.8
2023-02-04T15:56:58.000Z,7.7
2023-02-04T15:58:29.000Z,7.7
2023-02-04T16:00:00.000Z,7.6
2023-02-04T16:01:30.000Z,7.6
2023-02-04T16:03:01.000Z,7.6
2023-02-04T16:04:31.000Z,7.5
2023-02-04T16:06:02.000Z,7.5
2023-02-04T16:07:32.000Z,7.5
2023-02-04T16:08:49.000Z,7.5
2023-02-04T16:10:06.000Z,7.4
2023-02-04T16:11:36.000Z,7.4
2023-02-04T16:13:07.000Z,7.3
2023-02-04T16:14:37.000Z,7.3
2023-02-04T16:16:08.000Z,7.2
2023-02-04T16:17:38.000Z,7.2
2023-02-04T16:19:09.000Z,7.2
2023-02-04T16:20:39.000Z,7.1
2023-02-04T16:22:10.000Z,7.1
2023-02-04T16:23:40.000Z,7
2023-02-04T16:24:57.000Z,7
2023-02-04T16:26:14.000Z,6.9
2023-02-04T16:27:45.000Z,6.8
2023-02-04T16:29:15.000Z,6.8
2023-02-04T16:30:46.000Z,6.7
2023-02-04T16:32:16.000Z,6.7
2023-02-04T16:33:47.000Z,6.7
2023-02-04T16:35:17.000Z,6.7
2023-02-04T16:36:48.000Z,6.6
2023-02-04T16:38:18.000Z,6.6
2023-02-04T16:39:49.000Z,6.6
2023-02-04T16:41:06.000Z,6.5
2023-02-04T16:42:23.000Z,6.6
2023-02-04T16:43:53.000Z,6.6
2023-02-04T16:45:24.000Z,6.6
2023-02-04T16:46:54.000Z,6.6
2023-02-04T16:48:25.000Z,6.6
2023-02-04T16:49:55.000Z,6.6
2023-02-04T16:51:26.000Z,6.6
2023-02-04T16:52:56.000Z,6.6
2023-02-04T16:54:27.000Z,6.6
2023-02-04T16:55:57.000Z,6.5
2023-02-04T16:57:14.000Z,6.4
2023-02-04T16:58:31.000Z,6.3
2023-02-04T17:00:02.000Z,6.3
2023-02-04T17:01:32.000Z,6.2
2023-02-04T17:03:03.000Z,6.1
2023-02-04T17:04:33.000Z,6
2023-02-04T17:06:04.000Z,5.9
2023-02-04T17:07:34.000Z,5.8
2023-02-04T17:09:05.000Z,5.7
2023-02-04T17:10:35.000Z,5.7
2023-02-04T17:12:06.000Z,5.6
2023-02-04T17:13:23.000Z,5.6
2023-02-04T17:14:40.000Z,5.6
2023-02-04T17:16:10.000Z,5.6
2023-02-04T17:17:41.000Z,5.6
2023-02-04T17:19:11.000Z,5.6
2023-02-04T17:20:42.341Z,5.6
2023-02-04T17:22:12.000Z,5.6
2023-02-04T17:23:43.000Z,5.6
2023-02-04T17:25:13.000Z,5.6
2023-02-04T17:26:44.000Z,5.6
2023-02-04T17:28:14.000Z,5.6
2023-02-04T17:29:31.000Z,5.7
2023-02-04T17:30:48.000Z,5.8
2023-02-04T17:32:18.000Z,6
2023-02-04T17:33:49.000Z,6
2023-02-04T17:35:19.000Z,6.1
2023-02-04T17:36:50.000Z,6.1
2023-02-04T17:38:20.000Z,6.1
2023-02-04T17:39:51.000Z,6.1
2023-02-04T17:41:21.000Z,6.1
2023-02-04T17:42:52.000Z,6.1
2023-02-04T17:44:23.000Z,6
2023-02-04T17:45:39.000Z,6
2023-02-04T17:46:56.000Z,5.9
2023-02-04T17:48:27.000Z,5.8
2023-02-04T17:49:57.000Z,5.7
2023-02-04T17:51:28.000Z,5.6
2023-02-04T17:52:59.000Z,5.6
2023-02-04T17:54:37.000Z,5.5
2023-02-04T17:56:08.000Z,5.6
2023-02-04T17:57:38.000Z,5.5
2023-02-04T17:59:09.000Z,5.5
2023-02-04T18:00:39.000Z,5.5
2023-02-04T18:01:56.000Z,5.6
2023-02-04T18:03:13.000Z,5.5
2023-02-04T18:04:44.000Z,5.6
2023-02-04T18:06:14.000Z,5.5
2023-02-04T18:07:45.000Z,5.5
2023-02-04T18:09:15.000Z,5.5
2023-02-04T18:10:46.000Z,5.5
2023-02-04T18:12:16.000Z,5.6
2023-02-04T18:13:47.000Z,5.6
2023-02-04T18:15:17.000Z,5.6
2023-02-04T18:16:48.000Z,5.6
2023-02-04T18:18:05.000Z,5.6
2023-02-04T18:19:22.000Z,5.6
2023-02-04T18:20:52.000Z,5.6
2023-02-04T18:22:23.000Z,5.6
2023-02-04T18:23:53.000Z,5.6
2023-02-04T18:25:24.000Z,5.6
2023-02-04T18:26:54.000Z,5.6
2023-02-04T18:28:25.000Z,5.5
2023-02-04T18:29:55.000Z,5.5
2023-02-04T18:31:26.000Z,5.4
2023-02-04T18:32:56.000Z,5.4
2023-02-04T18:34:13.000Z,5.3
2023-02-04T18:35:30.000Z,5.3
2023-02-04T18:37:01.000Z,5.2
2023-02-04T18:38:31.000Z,5.2
2023-02-04T18:40:02.000Z,5.1
2023-02-04T18:41:32.000Z,5.1
2023-02-04T18:43:03.000Z,5.1
2023-02-04T18:44:33.000Z,5.1
2023-02-04T18:46:04.000Z,5.1
2023-02-04T18:47:34.000Z,5.1
2023-02-04T18:49:05.000Z,5.1
2023-02-04T18:50:21.000Z,5.1
2023-02-04T18:51:38.000Z,5.1
2023-02-04T18:53:09.000Z,5
2023-02-04T18:54:39.000Z,5
2023-02-04T18:56:10.000Z,5
2023-02-04T18:57:40.000Z,5
2023-02-04T18:59:11.000Z,4.9
2023-02-04T19:00:41.000Z,4.9
2023-02-04T19:02:12.000Z,4.9
2023-02-04T19:03:43.000Z,4.8
2023-02-04T19:05:13.000Z,4.7
2023-02-04T19:06:30.000Z,4.7
2023-02-04T19:07:47.000Z,4.6
2023-02-04T19:09:17.000Z,4.5
2023-02-04T19:10:48.000Z,4.4
2023-02-04T19:12:18.000Z,4.4
2023-02-04T19:13:49.000Z,4.3
2023-02-04T19:15:20.000Z,4.2
2023-02-04T19:16:50.000Z,4.1
2023-02-04T19:18:21.000Z,4.1
2023-02-04T19:19:51.000Z,4
2023-02-04T19:21:22.000Z,4
2023-02-04T19:22:39.000Z,4
2023-02-04T19:23:56.000Z,3.9
2023-02-04T19:25:26.000Z,3.8
2023-02-04T19:26:57.000Z,3.7
2023-02-04T19:28:27.000Z,3.7
2023-02-04T19:29:58.000Z,3.6
2023-02-04T19:31:28.000Z,3.6
2023-02-04T19:32:59.000Z,3.5
2023-02-04T19:34:29.000Z,3.4
2023-02-04T19:36:00.000Z,3.4
2023-02-04T19:37:30.000Z,3.5
2023-02-04T19:38:47.000Z,3.5
2023-02-04T19:40:04.000Z,3.6
2023-02-04T19:41:35.000Z,3.6
2023-02-04T19:43:05.000Z,3.5
2023-02-04T19:44:36.000Z,3.4
2023-02-04T19:46:06.000Z,3.3
2023-02-04T19:47:37.000Z,3.2
2023-02-04T19:49:07.000Z,3.2
2023-02-04T19:50:38.000Z,3.1
2023-02-04T19:52:08.000Z,3.1
2023-02-04T19:53:39.000Z,3.1
2023-02-04T19:54:56.000Z,3.1
2023-02-04T19:56:13.000Z,3
2023-02-04T19:57:43.000Z,3
2023-02-04T19:59:14.000Z,2.9
2023-02-04T20:00:44.000Z,2.9
2023-02-04T20:02:15.000Z,2.8
2023-02-04T20:03:45.000Z,2.8
2023-02-04T20:05:16.000Z,2.8
2023-02-04T20:06:46.000Z,2.8
2023-02-04T20:08:17.000Z,2.7
2023-02-04T20:09:47.000Z,2.8
2023-02-04T20:11:04.000Z,2.8
2023-02-04T20:12:21.000Z,2.7
2023-02-04T20:13:52.000Z,2.6
2023-02-04T20:15:22.000Z,2.6
2023-02-04T20:16:53.000Z,2.5
2023-02-04T20:18:23.000Z,2.4
2023-02-04T20:19:54.000Z,2.4
2023-02-04T20:21:24.000Z,2.4
2023-02-04T20:22:55.000Z,2.3
2023-02-04T20:24:25.000Z,2.3
2023-02-04T20:25:56.000Z,2.2
2023-02-04T20:27:12.000Z,2.1
2023-02-04T20:28:29.000Z,2